sensor_id;sensor_type;location;lat;lon;timestamp;P1;durP1;ratioP1;P2;durP2;ratioP2
68942;SDS011;60852;52.190;4.422;2023-07-20T00:01:22;0.67;;;0.67;;
68942;SDS011;60852;52.190;4.422;2023-07-20T00:03:48;0.65;;;0.65;;
68942;SDS011;60852;52.190;4.422;2023-07-20T00:06:20;0.65;;;0.65;;
68942;SDS011;60852;52.190;4.422;2023-07-20T00:08:50;0.67;;;0.67;;
68942;SDS011;60852;52.190;4.422;2023-07-20T00:11:18;0.64;;;0.64;;
68942;SDS011;60852;52.190;4.422;2023-07-20T00:13:44;0.63;;;0.63;;
68942;SDS011;60852;52.190;4.422;2023-07-20T00:16:09;0.56;;;0.56;;
68942;SDS011;60852;52.190;4.422;2023-07-20T00:18:35;0.53;;;0.53;;
68942;SDS011;60852;52.190;4.422;2023-07-20T00:21:00;0.59;;;0.59;;
68942;SDS011;60852;52.190;4.422;2023-07-20T00:23:26;0.53;;;0.53;;
68942;SDS011;60852;52.190;4.422;2023-07-20T00:25:52;0.62;;;0.62;;
68942;SDS011;60852;52.190;4.422;2023-07-20T00:28:19;0.59;;;0.59;;
68942;SDS011;60852;52.190;4.422;2023-07-20T00:30:45;0.69;;;0.69;;
68942;SDS011;60852;52.190;4.422;2023-07-20T00:33:11;0.58;;;0.58;;
68942;SDS011;60852;52.190;4.422;2023-07-20T00:35:40;0.59;;;0.59;;
68942;SDS011;60852;52.190;4.422;2023-07-20T00:38:05;0.67;;;0.67;;
68942;SDS011;60852;52.190;4.422;2023-07-20T00:40:38;0.68;;;0.68;;
68942;SDS011;60852;52.190;4.422;2023-07-20T00:43:04;0.69;;;0.69;;
68942;SDS011;60852;52.190;4.422;2023-07-20T00:45:30;0.71;;;0.71;;
68942;SDS011;60852;52.190;4.422;2023-07-20T00:47:56;0.67;;;0.67;;
68942;SDS011;60852;52.190;4.422;2023-07-20T00:50:23;0.70;;;0.70;;
68942;SDS011;60852;52.190;4.422;2023-07-20T00:52:50;0.64;;;0.64;;
68942;SDS011;60852;52.190;4.422;2023-07-20T00:55:16;0.66;;;0.66;;
68942;SDS011;60852;52.190;4.422;2023-07-20T00:57:42;0.72;;;0.72;;
68942;SDS011;60852;52.190;4.422;2023-07-20T01:00:09;0.71;;;0.71;;
68942;SDS011;60852;52.190;4.422;2023-07-20T01:02:34;0.68;;;0.68;;
68942;SDS011;60852;52.190;4.422;2023-07-20T01:05:00;0.55;;;0.55;;
68942;SDS011;60852;52.190;4.422;2023-07-20T01:07:37;0.65;;;0.65;;
68942;SDS011;60852;52.190;4.422;2023-07-20T01:10:17;0.60;;;0.60;;
68942;SDS011;60852;52.190;4.422;2023-07-20T01:12:46;0.56;;;0.56;;
68942;SDS011;60852;52.190;4.422;2023-07-20T01:15:13;0.55;;;0.55;;
68942;SDS011;60852;52.190;4.422;2023-07-20T01:17:39;0.40;;;0.40;;
68942;SDS011;60852;52.190;4.422;2023-07-20T01:20:08;0.42;;;0.42;;
68942;SDS011;60852;52.190;4.422;2023-07-20T01:28:32;0.74;;;0.74;;
68942;SDS011;60852;52.190;4.422;2023-07-20T01:31:26;0.63;;;0.63;;
68942;SDS011;60852;52.190;4.422;2023-07-20T01:33:56;0.76;;;0.76;;
68942;SDS011;60852;52.190;4.422;2023-07-20T01:36:24;0.80;;;0.80;;
68942;SDS011;60852;52.190;4.422;2023-07-20T01:38:53;0.86;;;0.86;;
68942;SDS011;60852;52.190;4.422;2023-07-20T01:41:21;0.91;;;0.91;;
68942;SDS011;60852;52.190;4.422;2023-07-20T01:43:47;0.99;;;0.99;;
68942;SDS011;60852;52.190;4.422;2023-07-20T01:46:12;0.98;;;0.98;;
68942;SDS011;60852;52.190;4.422;2023-07-20T01:48:38;1.23;;;1.23;;
68942;SDS011;60852;52.190;4.422;2023-07-20T01:51:03;1.15;;;1.15;;
68942;SDS011;60852;52.190;4.422;2023-07-20T01:53:29;1.28;;;1.28;;
68942;SDS011;60852;52.190;4.422;2023-07-20T01:55:54;1.29;;;1.29;;
68942;SDS011;60852;52.190;4.422;2023-07-20T01:58:20;1.16;;;1.16;;
68942;SDS011;60852;52.190;4.422;2023-07-20T02:00:46;1.36;;;1.36;;
68942;SDS011;60852;52.190;4.422;2023-07-20T02:03:11;1.26;;;1.26;;
68942;SDS011;60852;52.190;4.422;2023-07-20T02:05:37;1.33;;;1.33;;
68942;SDS011;60852;52.190;4.422;2023-07-20T02:08:03;1.29;;;1.29;;
68942;SDS011;60852;52.190;4.422;2023-07-20T02:10:29;1.38;;;1.38;;
68942;SDS011;60852;52.190;4.422;2023-07-20T02:12:54;1.46;;;1.46;;
68942;SDS011;60852;52.190;4.422;2023-07-20T02:15:20;1.25;;;1.25;;
68942;SDS011;60852;52.190;4.422;2023-07-20T02:17:46;1.25;;;1.25;;
68942;SDS011;60852;52.190;4.422;2023-07-20T02:20:12;1.37;;;1.37;;
68942;SDS011;60852;52.190;4.422;2023-07-20T02:22:38;1.43;;;1.43;;
68942;SDS011;60852;52.190;4.422;2023-07-20T02:25:07;1.43;;;1.43;;
68942;SDS011;60852;52.190;4.422;2023-07-20T02:27:34;1.45;;;1.45;;
68942;SDS011;60852;52.190;4.422;2023-07-20T02:29:59;1.28;;;1.28;;
68942;SDS011;60852;52.190;4.422;2023-07-20T02:32:25;1.50;;;1.50;;
68942;SDS011;60852;52.190;4.422;2023-07-20T02:34:51;1.50;;;1.50;;
68942;SDS011;60852;52.190;4.422;2023-07-20T02:37:16;1.37;;;1.37;;
68942;SDS011;60852;52.190;4.422;2023-07-20T02:39:42;1.31;;;1.31;;
68942;SDS011;60852;52.190;4.422;2023-07-20T02:42:08;1.35;;;1.35;;
68942;SDS011;60852;52.190;4.422;2023-07-20T02:44:33;1.56;;;1.56;;
68942;SDS011;60852;52.190;4.422;2023-07-20T02:46:59;1.41;;;1.41;;
68942;SDS011;60852;52.190;4.422;2023-07-20T02:49:25;1.43;;;1.43;;
68942;SDS011;60852;52.190;4.422;2023-07-20T02:51:50;1.58;;;1.58;;
68942;SDS011;60852;52.190;4.422;2023-07-20T02:54:16;1.55;;;1.55;;
68942;SDS011;60852;52.190;4.422;2023-07-20T02:56:41;1.38;;;1.38;;
68942;SDS011;60852;52.190;4.422;2023-07-20T02:59:07;1.48;;;1.48;;
68942;SDS011;60852;52.190;4.422;2023-07-20T03:01:33;1.47;;;1.47;;
68942;SDS011;60852;52.190;4.422;2023-07-20T03:03:59;1.35;;;1.35;;
68942;SDS011;60852;52.190;4.422;2023-07-20T03:06:24;1.47;;;1.47;;
68942;SDS011;60852;52.190;4.422;2023-07-20T03:08:50;1.42;;;1.42;;
68942;SDS011;60852;52.190;4.422;2023-07-20T03:11:17;1.47;;;1.47;;
68942;SDS011;60852;52.190;4.422;2023-07-20T03:13:44;1.57;;;1.57;;
68942;SDS011;60852;52.190;4.422;2023-07-20T03:16:10;1.60;;;1.60;;
68942;SDS011;60852;52.190;4.422;2023-07-20T03:18:40;1.42;;;1.42;;
68942;SDS011;60852;52.190;4.422;2023-07-20T03:21:09;1.55;;;1.55;;
68942;SDS011;60852;52.190;4.422;2023-07-20T03:23:39;1.48;;;1.48;;
68942;SDS011;60852;52.190;4.422;2023-07-20T03:26:05;1.44;;;1.44;;
68942;SDS011;60852;52.190;4.422;2023-07-20T03:28:37;1.78;;;1.78;;
68942;SDS011;60852;52.190;4.422;2023-07-20T03:31:03;1.66;;;1.66;;
68942;SDS011;60852;52.190;4.422;2023-07-20T03:33:29;1.72;;;1.72;;
68942;SDS011;60852;52.190;4.422;2023-07-20T03:35:56;1.70;;;1.70;;
68942;SDS011;60852;52.190;4.422;2023-07-20T03:38:22;1.81;;;1.81;;
68942;SDS011;60852;52.190;4.422;2023-07-20T03:40:52;1.78;;;1.78;;
68942;SDS011;60852;52.190;4.422;2023-07-20T03:43:19;1.71;;;1.71;;
68942;SDS011;60852;52.190;4.422;2023-07-20T03:45:46;1.82;;;1.82;;
68942;SDS011;60852;52.190;4.422;2023-07-20T03:48:13;1.71;;;1.71;;
68942;SDS011;60852;52.190;4.422;2023-07-20T03:50:40;1.84;;;1.84;;
68942;SDS011;60852;52.190;4.422;2023-07-20T03:53:06;1.79;;;1.79;;
68942;SDS011;60852;52.190;4.422;2023-07-20T03:55:31;1.64;;;1.64;;
68942;SDS011;60852;52.190;4.422;2023-07-20T03:57:57;1.54;;;1.54;;
68942;SDS011;60852;52.190;4.422;2023-07-20T04:00:22;1.62;;;1.62;;
68942;SDS011;60852;52.190;4.422;2023-07-20T04:02:48;1.46;;;1.46;;
68942;SDS011;60852;52.190;4.422;2023-07-20T04:05:14;1.55;;;1.55;;
68942;SDS011;60852;52.190;4.422;2023-07-20T04:07:39;1.72;;;1.72;;
68942;SDS011;60852;52.190;4.422;2023-07-20T04:10:05;2.00;;;2.00;;
68942;SDS011;60852;52.190;4.422;2023-07-20T04:12:31;2.43;;;2.43;;
68942;SDS011;60852;52.190;4.422;2023-07-20T04:14:56;2.26;;;2.26;;
68942;SDS011;60852;52.190;4.422;2023-07-20T04:17:22;2.21;;;2.21;;
68942;SDS011;60852;52.190;4.422;2023-07-20T04:19:47;1.94;;;1.94;;
68942;SDS011;60852;52.190;4.422;2023-07-20T04:22:13;1.94;;;1.94;;
68942;SDS011;60852;52.190;4.422;2023-07-20T04:24:41;1.77;;;1.77;;
68942;SDS011;60852;52.190;4.422;2023-07-20T04:27:07;1.67;;;1.67;;
68942;SDS011;60852;52.190;4.422;2023-07-20T04:29:33;1.58;;;1.58;;
68942;SDS011;60852;52.190;4.422;2023-07-20T04:31:59;1.76;;;1.76;;
68942;SDS011;60852;52.190;4.422;2023-07-20T04:34:24;1.50;;;1.50;;
68942;SDS011;60852;52.190;4.422;2023-07-20T04:36:50;1.29;;;1.29;;
68942;SDS011;60852;52.190;4.422;2023-07-20T04:39:15;1.47;;;1.47;;
68942;SDS011;60852;52.190;4.422;2023-07-20T04:41:41;1.55;;;1.55;;
68942;SDS011;60852;52.190;4.422;2023-07-20T04:44:06;1.32;;;1.32;;
68942;SDS011;60852;52.190;4.422;2023-07-20T04:46:31;1.42;;;1.42;;
68942;SDS011;60852;52.190;4.422;2023-07-20T04:48:57;1.36;;;1.36;;
68942;SDS011;60852;52.190;4.422;2023-07-20T04:51:22;1.44;;;1.44;;
68942;SDS011;60852;52.190;4.422;2023-07-20T04:53:49;1.42;;;1.42;;
68942;SDS011;60852;52.190;4.422;2023-07-20T04:56:15;1.43;;;1.43;;
68942;SDS011;60852;52.190;4.422;2023-07-20T04:58:40;1.46;;;1.46;;
68942;SDS011;60852;52.190;4.422;2023-07-20T05:01:06;1.52;;;1.52;;
68942;SDS011;60852;52.190;4.422;2023-07-20T05:03:32;1.34;;;1.34;;
68942;SDS011;60852;52.190;4.422;2023-07-20T05:05:58;1.25;;;1.25;;
68942;SDS011;60852;52.190;4.422;2023-07-20T05:08:23;1.27;;;1.27;;
68942;SDS011;60852;52.190;4.422;2023-07-20T05:10:49;1.45;;;1.45;;
68942;SDS011;60852;52.190;4.422;2023-07-20T05:13:15;1.50;;;1.50;;
68942;SDS011;60852;52.190;4.422;2023-07-20T05:15:40;1.74;;;1.74;;
68942;SDS011;60852;52.190;4.422;2023-07-20T05:18:06;1.83;;;1.83;;
68942;SDS011;60852;52.190;4.422;2023-07-20T05:20:31;1.54;;;1.54;;
68942;SDS011;60852;52.190;4.422;2023-07-20T05:22:58;1.41;;;1.41;;
68942;SDS011;60852;52.190;4.422;2023-07-20T05:25:24;1.29;;;1.29;;
68942;SDS011;60852;52.190;4.422;2023-07-20T05:27:50;1.43;;;1.43;;
68942;SDS011;60852;52.190;4.422;2023-07-20T05:30:15;1.26;;;1.26;;
68942;SDS011;60852;52.190;4.422;2023-07-20T05:32:41;1.32;;;1.32;;
68942;SDS011;60852;52.190;4.422;2023-07-20T05:35:07;1.40;;;1.40;;
68942;SDS011;60852;52.190;4.422;2023-07-20T05:37:33;1.57;;;1.57;;
68942;SDS011;60852;52.190;4.422;2023-07-20T05:39:59;1.48;;;1.48;;
68942;SDS011;60852;52.190;4.422;2023-07-20T05:42:24;1.44;;;1.44;;
68942;SDS011;60852;52.190;4.422;2023-07-20T05:44:50;1.46;;;1.46;;
68942;SDS011;60852;52.190;4.422;2023-07-20T05:47:18;1.34;;;1.34;;
68942;SDS011;60852;52.190;4.422;2023-07-20T05:49:43;1.70;;;1.70;;
68942;SDS011;60852;52.190;4.422;2023-07-20T05:52:08;1.60;;;1.60;;
68942;SDS011;60852;52.190;4.422;2023-07-20T05:54:34;1.34;;;1.34;;
68942;SDS011;60852;52.190;4.422;2023-07-20T05:57:00;1.23;;;1.23;;
68942;SDS011;60852;52.190;4.422;2023-07-20T05:59:26;1.28;;;1.28;;
68942;SDS011;60852;52.190;4.422;2023-07-20T06:01:54;1.21;;;1.21;;
68942;SDS011;60852;52.190;4.422;2023-07-20T06:04:20;1.15;;;1.15;;
68942;SDS011;60852;52.190;4.422;2023-07-20T06:06:45;1.23;;;1.23;;
68942;SDS011;60852;52.190;4.422;2023-07-20T06:09:11;1.12;;;1.12;;
68942;SDS011;60852;52.190;4.422;2023-07-20T06:11:40;1.02;;;1.02;;
68942;SDS011;60852;52.190;4.422;2023-07-20T06:14:06;1.16;;;1.16;;
68942;SDS011;60852;52.190;4.422;2023-07-20T06:16:31;1.10;;;1.10;;
68942;SDS011;60852;52.190;4.422;2023-07-20T06:18:58;0.98;;;0.98;;
68942;SDS011;60852;52.190;4.422;2023-07-20T06:21:25;1.22;;;1.22;;
68942;SDS011;60852;52.190;4.422;2023-07-20T06:23:50;1.12;;;1.12;;
68942;SDS011;60852;52.190;4.422;2023-07-20T06:26:15;0.89;;;0.89;;
68942;SDS011;60852;52.190;4.422;2023-07-20T06:28:41;0.90;;;0.90;;
68942;SDS011;60852;52.190;4.422;2023-07-20T06:31:06;1.01;;;1.01;;
68942;SDS011;60852;52.190;4.422;2023-07-20T06:33:32;1.08;;;1.08;;
68942;SDS011;60852;52.190;4.422;2023-07-20T06:35:57;1.05;;;1.05;;
68942;SDS011;60852;52.190;4.422;2023-07-20T06:38:23;0.96;;;0.96;;
68942;SDS011;60852;52.190;4.422;2023-07-20T06:40:49;1.14;;;1.14;;
68942;SDS011;60852;52.190;4.422;2023-07-20T06:43:15;0.90;;;0.90;;
68942;SDS011;60852;52.190;4.422;2023-07-20T06:45:41;0.91;;;0.91;;
68942;SDS011;60852;52.190;4.422;2023-07-20T06:48:07;0.75;;;0.75;;
68942;SDS011;60852;52.190;4.422;2023-07-20T06:50:33;0.97;;;0.97;;
68942;SDS011;60852;52.190;4.422;2023-07-20T06:52:59;0.91;;;0.91;;
68942;SDS011;60852;52.190;4.422;2023-07-20T06:55:25;0.96;;;0.96;;
68942;SDS011;60852;52.190;4.422;2023-07-20T06:57:51;0.81;;;0.81;;
68942;SDS011;60852;52.190;4.422;2023-07-20T07:00:17;0.82;;;0.82;;
68942;SDS011;60852;52.190;4.422;2023-07-20T07:02:42;0.83;;;0.83;;
68942;SDS011;60852;52.190;4.422;2023-07-20T07:05:08;0.94;;;0.94;;
68942;SDS011;60852;52.190;4.422;2023-07-20T07:07:34;0.89;;;0.89;;
68942;SDS011;60852;52.190;4.422;2023-07-20T07:10:00;0.94;;;0.94;;
68942;SDS011;60852;52.190;4.422;2023-07-20T07:12:26;0.87;;;0.87;;
68942;SDS011;60852;52.190;4.422;2023-07-20T07:14:51;3.08;;;2.99;;
68942;SDS011;60852;52.190;4.422;2023-07-20T07:17:17;1.64;;;1.49;;
68942;SDS011;60852;52.190;4.422;2023-07-20T07:19:43;0.96;;;0.87;;
68942;SDS011;60852;52.190;4.422;2023-07-20T07:22:09;0.92;;;0.86;;
68942;SDS011;60852;52.190;4.422;2023-07-20T07:24:35;0.86;;;0.85;;
68942;SDS011;60852;52.190;4.422;2023-07-20T07:27:01;0.92;;;0.92;;
68942;SDS011;60852;52.190;4.422;2023-07-20T07:29:27;1.02;;;1.02;;
68942;SDS011;60852;52.190;4.422;2023-07-20T07:31:53;1.29;;;1.29;;
68942;SDS011;60852;52.190;4.422;2023-07-20T07:34:18;0.84;;;0.84;;
68942;SDS011;60852;52.190;4.422;2023-07-20T07:36:44;0.94;;;0.94;;
68942;SDS011;60852;52.190;4.422;2023-07-20T07:39:10;0.79;;;0.79;;
68942;SDS011;60852;52.190;4.422;2023-07-20T07:41:36;0.69;;;0.69;;
68942;SDS011;60852;52.190;4.422;2023-07-20T07:44:02;0.82;;;0.82;;
68942;SDS011;60852;52.190;4.422;2023-07-20T07:46:27;0.94;;;0.94;;
68942;SDS011;60852;52.190;4.422;2023-07-20T07:48:53;0.86;;;0.86;;
68942;SDS011;60852;52.190;4.422;2023-07-20T07:51:18;0.90;;;0.90;;
68942;SDS011;60852;52.190;4.422;2023-07-20T07:53:45;1.05;;;1.05;;
68942;SDS011;60852;52.190;4.422;2023-07-20T07:56:11;0.83;;;0.83;;
68942;SDS011;60852;52.190;4.422;2023-07-20T07:58:36;0.97;;;0.97;;
68942;SDS011;60852;52.190;4.422;2023-07-20T08:01:03;1.04;;;1.04;;
68942;SDS011;60852;52.190;4.422;2023-07-20T08:03:29;0.91;;;0.91;;
68942;SDS011;60852;52.190;4.422;2023-07-20T08:05:54;1.04;;;1.04;;
68942;SDS011;60852;52.190;4.422;2023-07-20T08:08:25;0.92;;;0.92;;
68942;SDS011;60852;52.190;4.422;2023-07-20T08:10:53;0.78;;;0.78;;
68942;SDS011;60852;52.190;4.422;2023-07-20T08:13:19;0.83;;;0.83;;
68942;SDS011;60852;52.190;4.422;2023-07-20T08:15:45;0.81;;;0.81;;
68942;SDS011;60852;52.190;4.422;2023-07-20T08:18:14;1.06;;;1.06;;
68942;SDS011;60852;52.190;4.422;2023-07-20T08:20:43;0.81;;;0.81;;
68942;SDS011;60852;52.190;4.422;2023-07-20T08:23:09;0.77;;;0.77;;
68942;SDS011;60852;52.190;4.422;2023-07-20T08:25:36;0.71;;;0.71;;
68942;SDS011;60852;52.190;4.422;2023-07-20T08:28:04;0.87;;;0.87;;
68942;SDS011;60852;52.190;4.422;2023-07-20T08:30:39;0.86;;;0.86;;
68942;SDS011;60852;52.190;4.422;2023-07-20T08:33:09;0.83;;;0.83;;
68942;SDS011;60852;52.190;4.422;2023-07-20T08:35:35;0.87;;;0.87;;
68942;SDS011;60852;52.190;4.422;2023-07-20T08:38:01;0.87;;;0.87;;
68942;SDS011;60852;52.190;4.422;2023-07-20T08:40:27;0.95;;;0.95;;
68942;SDS011;60852;52.190;4.422;2023-07-20T08:42:52;0.88;;;0.88;;
68942;SDS011;60852;52.190;4.422;2023-07-20T08:45:20;0.68;;;0.68;;
68942;SDS011;60852;52.190;4.422;2023-07-20T08:47:48;0.93;;;0.93;;
68942;SDS011;60852;52.190;4.422;2023-07-20T08:50:15;1.06;;;1.06;;
68942;SDS011;60852;52.190;4.422;2023-07-20T08:52:41;0.75;;;0.75;;
68942;SDS011;60852;52.190;4.422;2023-07-20T08:55:07;0.97;;;0.97;;
68942;SDS011;60852;52.190;4.422;2023-07-20T08:57:33;1.03;;;1.03;;
68942;SDS011;60852;52.190;4.422;2023-07-20T09:00:02;0.86;;;0.86;;
68942;SDS011;60852;52.190;4.422;2023-07-20T09:02:38;0.71;;;0.71;;
68942;SDS011;60852;52.190;4.422;2023-07-20T09:05:08;0.72;;;0.72;;
68942;SDS011;60852;52.190;4.422;2023-07-20T09:07:35;0.90;;;0.90;;
68942;SDS011;60852;52.190;4.422;2023-07-20T09:10:01;0.94;;;0.94;;
68942;SDS011;60852;52.190;4.422;2023-07-20T09:12:41;0.77;;;0.77;;
68942;SDS011;60852;52.190;4.422;2023-07-20T09:15:08;0.92;;;0.92;;
68942;SDS011;60852;52.190;4.422;2023-07-20T09:17:35;0.97;;;0.97;;
68942;SDS011;60852;52.190;4.422;2023-07-20T09:20:03;0.82;;;0.82;;
68942;SDS011;60852;52.190;4.422;2023-07-20T09:22:33;0.90;;;0.90;;
68942;SDS011;60852;52.190;4.422;2023-07-20T09:24:59;1.04;;;1.04;;
68942;SDS011;60852;52.190;4.422;2023-07-20T09:27:40;0.91;;;0.91;;
68942;SDS011;60852;52.190;4.422;2023-07-20T09:30:07;0.93;;;0.93;;
68942;SDS011;60852;52.190;4.422;2023-07-20T09:32:41;0.90;;;0.90;;
68942;SDS011;60852;52.190;4.422;2023-07-20T09:35:15;0.90;;;0.90;;
68942;SDS011;60852;52.190;4.422;2023-07-20T09:37:58;0.74;;;0.74;;
68942;SDS011;60852;52.190;4.422;2023-07-20T09:40:25;0.89;;;0.89;;
68942;SDS011;60852;52.190;4.422;2023-07-20T09:42:52;0.79;;;0.79;;
68942;SDS011;60852;52.190;4.422;2023-07-20T09:45:28;0.78;;;0.78;;
68942;SDS011;60852;52.190;4.422;2023-07-20T09:48:02;0.94;;;0.94;;
68942;SDS011;60852;52.190;4.422;2023-07-20T09:50:30;0.85;;;0.85;;
68942;SDS011;60852;52.190;4.422;2023-07-20T09:52:55;0.89;;;0.89;;
68942;SDS011;60852;52.190;4.422;2023-07-20T09:55:22;0.98;;;0.98;;
68942;SDS011;60852;52.190;4.422;2023-07-20T09:57:49;0.91;;;0.91;;
68942;SDS011;60852;52.190;4.422;2023-07-20T10:00:18;0.90;;;0.90;;
68942;SDS011;60852;52.190;4.422;2023-07-20T10:02:44;0.76;;;0.76;;
68942;SDS011;60852;52.190;4.422;2023-07-20T10:05:14;0.76;;;0.76;;
68942;SDS011;60852;52.190;4.422;2023-07-20T10:07:44;0.77;;;0.77;;
68942;SDS011;60852;52.190;4.422;2023-07-20T10:10:13;1.08;;;1.08;;
68942;SDS011;60852;52.190;4.422;2023-07-20T10:12:42;0.77;;;0.77;;
68942;SDS011;60852;52.190;4.422;2023-07-20T10:15:10;0.98;;;0.98;;
68942;SDS011;60852;52.190;4.422;2023-07-20T10:17:57;0.73;;;0.73;;
68942;SDS011;60852;52.190;4.422;2023-07-20T10:20:26;0.70;;;0.70;;
68942;SDS011;60852;52.190;4.422;2023-07-20T10:22:53;0.72;;;0.72;;
68942;SDS011;60852;52.190;4.422;2023-07-20T10:25:22;0.78;;;0.78;;
68942;SDS011;60852;52.190;4.422;2023-07-20T10:27:48;0.86;;;0.86;;
68942;SDS011;60852;52.190;4.422;2023-07-20T10:30:14;0.79;;;0.79;;
68942;SDS011;60852;52.190;4.422;2023-07-20T10:32:41;0.83;;;0.83;;
68942;SDS011;60852;52.190;4.422;2023-07-20T10:35:17;0.85;;;0.85;;
68942;SDS011;60852;52.190;4.422;2023-07-20T10:42:56;0.73;;;0.73;;
68942;SDS011;60852;52.190;4.422;2023-07-20T10:45:33;0.70;;;0.70;;
68942;SDS011;60852;52.190;4.422;2023-07-20T10:47:58;0.82;;;0.82;;
68942;SDS011;60852;52.190;4.422;2023-07-20T10:50:27;0.64;;;0.64;;
68942;SDS011;60852;52.190;4.422;2023-07-20T10:53:10;0.65;;;0.65;;
68942;SDS011;60852;52.190;4.422;2023-07-20T10:55:37;0.77;;;0.77;;
68942;SDS011;60852;52.190;4.422;2023-07-20T10:58:14;0.71;;;0.71;;
68942;SDS011;60852;52.190;4.422;2023-07-20T11:00:59;0.71;;;0.71;;
68942;SDS011;60852;52.190;4.422;2023-07-20T11:03:30;0.64;;;0.64;;
68942;SDS011;60852;52.190;4.422;2023-07-20T11:06:01;0.67;;;0.67;;
68942;SDS011;60852;52.190;4.422;2023-07-20T11:09:04;0.68;;;0.68;;
68942;SDS011;60852;52.190;4.422;2023-07-20T11:11:32;0.72;;;0.72;;
68942;SDS011;60852;52.190;4.422;2023-07-20T11:14:04;0.73;;;0.73;;
68942;SDS011;60852;52.190;4.422;2023-07-20T11:16:40;0.84;;;0.84;;
68942;SDS011;60852;52.190;4.422;2023-07-20T11:19:14;0.74;;;0.74;;
68942;SDS011;60852;52.190;4.422;2023-07-20T11:21:41;0.81;;;0.81;;
68942;SDS011;60852;52.190;4.422;2023-07-20T11:24:07;0.77;;;0.77;;
68942;SDS011;60852;52.190;4.422;2023-07-20T11:26:41;0.82;;;0.82;;
68942;SDS011;60852;52.190;4.422;2023-07-20T11:29:11;0.58;;;0.58;;
68942;SDS011;60852;52.190;4.422;2023-07-20T11:31:40;0.77;;;0.77;;
68942;SDS011;60852;52.190;4.422;2023-07-20T11:34:10;0.63;;;0.63;;
68942;SDS011;60852;52.190;4.422;2023-07-20T11:36:38;0.85;;;0.85;;
68942;SDS011;60852;52.190;4.422;2023-07-20T11:39:11;0.70;;;0.70;;
68942;SDS011;60852;52.190;4.422;2023-07-20T11:41:44;0.77;;;0.77;;
68942;SDS011;60852;52.190;4.422;2023-07-20T11:44:13;0.82;;;0.82;;
68942;SDS011;60852;52.190;4.422;2023-07-20T11:46:40;0.59;;;0.59;;
68942;SDS011;60852;52.190;4.422;2023-07-20T11:49:10;0.70;;;0.70;;
68942;SDS011;60852;52.190;4.422;2023-07-20T11:51:36;0.69;;;0.69;;
68942;SDS011;60852;52.190;4.422;2023-07-20T11:54:05;0.76;;;0.76;;
68942;SDS011;60852;52.190;4.422;2023-07-20T11:56:32;0.70;;;0.70;;
68942;SDS011;60852;52.190;4.422;2023-07-20T11:58:58;0.74;;;0.74;;
68942;SDS011;60852;52.190;4.422;2023-07-20T12:01:27;0.85;;;0.85;;
68942;SDS011;60852;52.190;4.422;2023-07-20T12:03:57;0.76;;;0.76;;
68942;SDS011;60852;52.190;4.422;2023-07-20T12:06:28;0.87;;;0.87;;
68942;SDS011;60852;52.190;4.422;2023-07-20T12:08:55;0.76;;;0.76;;
68942;SDS011;60852;52.190;4.422;2023-07-20T12:11:37;0.59;;;0.59;;
68942;SDS011;60852;52.190;4.422;2023-07-20T12:14:08;0.70;;;0.70;;
68942;SDS011;60852;52.190;4.422;2023-07-20T12:16:35;0.90;;;0.90;;
68942;SDS011;60852;52.190;4.422;2023-07-20T12:21:31;0.72;;;0.72;;
68942;SDS011;60852;52.190;4.422;2023-07-20T12:24:02;0.71;;;0.71;;
68942;SDS011;60852;52.190;4.422;2023-07-20T12:26:29;0.69;;;0.69;;
68942;SDS011;60852;52.190;4.422;2023-07-20T12:28:56;0.78;;;0.78;;
68942;SDS011;60852;52.190;4.422;2023-07-20T12:31:22;0.63;;;0.63;;
68942;SDS011;60852;52.190;4.422;2023-07-20T12:33:49;0.66;;;0.66;;
68942;SDS011;60852;52.190;4.422;2023-07-20T12:36:15;0.80;;;0.80;;
68942;SDS011;60852;52.190;4.422;2023-07-20T12:38:42;0.81;;;0.81;;
68942;SDS011;60852;52.190;4.422;2023-07-20T12:41:09;0.75;;;0.75;;
68942;SDS011;60852;52.190;4.422;2023-07-20T12:43:37;0.82;;;0.82;;
68942;SDS011;60852;52.190;4.422;2023-07-20T12:46:03;0.84;;;0.84;;
68942;SDS011;60852;52.190;4.422;2023-07-20T12:48:29;0.82;;;0.82;;
68942;SDS011;60852;52.190;4.422;2023-07-20T12:50:54;0.64;;;0.64;;
68942;SDS011;60852;52.190;4.422;2023-07-20T12:53:20;0.84;;;0.84;;
68942;SDS011;60852;52.190;4.422;2023-07-20T12:55:46;0.84;;;0.84;;
68942;SDS011;60852;52.190;4.422;2023-07-20T12:58:12;0.85;;;0.85;;
68942;SDS011;60852;52.190;4.422;2023-07-20T13:00:38;0.83;;;0.83;;
68942;SDS011;60852;52.190;4.422;2023-07-20T13:03:04;0.79;;;0.79;;
68942;SDS011;60852;52.190;4.422;2023-07-20T13:05:30;0.83;;;0.83;;
68942;SDS011;60852;52.190;4.422;2023-07-20T13:08:00;0.70;;;0.70;;
68942;SDS011;60852;52.190;4.422;2023-07-20T13:10:26;0.81;;;0.81;;
68942;SDS011;60852;52.190;4.422;2023-07-20T13:12:52;0.78;;;0.78;;
68942;SDS011;60852;52.190;4.422;2023-07-20T13:15:17;0.80;;;0.80;;
68942;SDS011;60852;52.190;4.422;2023-07-20T13:17:43;0.73;;;0.73;;
68942;SDS011;60852;52.190;4.422;2023-07-20T13:20:09;0.71;;;0.71;;
68942;SDS011;60852;52.190;4.422;2023-07-20T13:22:39;0.91;;;0.91;;
68942;SDS011;60852;52.190;4.422;2023-07-20T13:25:05;0.79;;;0.79;;
68942;SDS011;60852;52.190;4.422;2023-07-20T13:27:32;0.62;;;0.62;;
68942;SDS011;60852;52.190;4.422;2023-07-20T13:29:58;0.61;;;0.61;;
68942;SDS011;60852;52.190;4.422;2023-07-20T13:32:25;0.77;;;0.77;;
68942;SDS011;60852;52.190;4.422;2023-07-20T13:34:51;0.81;;;0.81;;
68942;SDS011;60852;52.190;4.422;2023-07-20T13:37:17;0.84;;;0.84;;
68942;SDS011;60852;52.190;4.422;2023-07-20T13:39:42;0.62;;;0.62;;
68942;SDS011;60852;52.190;4.422;2023-07-20T13:42:08;0.76;;;0.76;;
68942;SDS011;60852;52.190;4.422;2023-07-20T13:44:36;0.90;;;0.90;;
68942;SDS011;60852;52.190;4.422;2023-07-20T13:47:02;0.85;;;0.85;;
68942;SDS011;60852;52.190;4.422;2023-07-20T13:49:30;0.87;;;0.87;;
68942;SDS011;60852;52.190;4.422;2023-07-20T13:51:57;0.82;;;0.82;;
68942;SDS011;60852;52.190;4.422;2023-07-20T13:54:23;0.72;;;0.72;;
68942;SDS011;60852;52.190;4.422;2023-07-20T13:56:49;0.87;;;0.87;;
68942;SDS011;60852;52.190;4.422;2023-07-20T13:59:15;0.81;;;0.81;;
68942;SDS011;60852;52.190;4.422;2023-07-20T14:01:40;0.73;;;0.73;;
68942;SDS011;60852;52.190;4.422;2023-07-20T14:04:06;0.81;;;0.81;;
68942;SDS011;60852;52.190;4.422;2023-07-20T14:06:32;0.96;;;0.96;;
68942;SDS011;60852;52.190;4.422;2023-07-20T14:08:59;0.99;;;0.99;;
68942;SDS011;60852;52.190;4.422;2023-07-20T14:11:24;0.82;;;0.82;;
68942;SDS011;60852;52.190;4.422;2023-07-20T14:13:50;0.81;;;0.81;;
68942;SDS011;60852;52.190;4.422;2023-07-20T14:16:19;0.90;;;0.90;;
68942;SDS011;60852;52.190;4.422;2023-07-20T14:18:45;0.84;;;0.84;;
68942;SDS011;60852;52.190;4.422;2023-07-20T14:21:14;0.70;;;0.70;;
68942;SDS011;60852;52.190;4.422;2023-07-20T14:23:40;0.72;;;0.72;;
68942;SDS011;60852;52.190;4.422;2023-07-20T14:26:06;0.71;;;0.71;;
68942;SDS011;60852;52.190;4.422;2023-07-20T14:28:32;0.74;;;0.74;;
68942;SDS011;60852;52.190;4.422;2023-07-20T14:30:58;0.96;;;0.96;;
68942;SDS011;60852;52.190;4.422;2023-07-20T14:33:23;0.80;;;0.80;;
68942;SDS011;60852;52.190;4.422;2023-07-20T14:35:49;0.83;;;0.83;;
68942;SDS011;60852;52.190;4.422;2023-07-20T14:38:15;0.78;;;0.78;;
68942;SDS011;60852;52.190;4.422;2023-07-20T14:40:40;0.81;;;0.81;;
68942;SDS011;60852;52.190;4.422;2023-07-20T14:43:06;1.07;;;1.07;;
68942;SDS011;60852;52.190;4.422;2023-07-20T14:45:32;0.72;;;0.72;;
68942;SDS011;60852;52.190;4.422;2023-07-20T14:47:57;0.74;;;0.74;;
68942;SDS011;60852;52.190;4.422;2023-07-20T14:50:23;0.85;;;0.85;;
68942;SDS011;60852;52.190;4.422;2023-07-20T14:52:48;0.74;;;0.74;;
68942;SDS011;60852;52.190;4.422;2023-07-20T14:55:15;0.72;;;0.72;;
68942;SDS011;60852;52.190;4.422;2023-07-20T14:57:40;0.84;;;0.84;;
68942;SDS011;60852;52.190;4.422;2023-07-20T15:00:06;0.87;;;0.87;;
68942;SDS011;60852;52.190;4.422;2023-07-20T15:02:35;0.86;;;0.86;;